EmailTwitter


Observations de surface / Royaume-Uni / EGLL (03772)

Régions: Québec | Canada | États-Unis | Europe | France | UK | Ailleurs
Station
Affichage
Infos & localisation pour EGLL (03772) | Aide pour décoder les METARs

Observations prises le 2019-01-22 à 14H50 UTC à LONDON/HEATHROW, UK (EGLL)

Etat du ciel: partiellement nuageux.

Température: 5.0 Celsius

Point de rosée: 1.0 Celsius

Humidité relative: 75%

Facteur vent: 2.

Vents: Sud-ouest à 15 km/h ou 8 noeuds.

Pression au niveau moyen de la mer: 100.00 kilopascals.

Visibilité horizontale: 6.21 milles terrestres ou 9.94 kilomètres.

Hauteur du plafond: 1341 mètres ( 4400 pieds ).

Observation METAR:

EGLL 221450Z AUTO 23008KT 9999 FEW035/// BKN044/// //////TCU 05/01 Q1000 TEMPO

6000 -SHRASN=